sensor_id;sensor_type;location;lat;lon;timestamp;temperature;humidity
67870;DHT22;54673;52.262;6.830;2023-05-29T00:02:07;24.80;38.80
67870;DHT22;54673;52.262;6.830;2023-05-29T00:04:33;24.90;38.90
67870;DHT22;54673;52.262;6.830;2023-05-29T00:06:58;24.80;38.80
67870;DHT22;54673;52.262;6.830;2023-05-29T00:09:24;24.80;38.80
67870;DHT22;54673;52.262;6.830;2023-05-29T00:11:50;24.80;38.80
67870;DHT22;54673;52.262;6.830;2023-05-29T00:14:18;24.80;38.90
67870;DHT22;54673;52.262;6.830;2023-05-29T00:16:48;24.80;38.80
67870;DHT22;54673;52.262;6.830;2023-05-29T00:19:14;24.80;38.80
67870;DHT22;54673;52.262;6.830;2023-05-29T00:21:42;24.80;38.70
67870;DHT22;54673;52.262;6.830;2023-05-29T00:24:08;24.80;38.70
67870;DHT22;54673;52.262;6.830;2023-05-29T00:26:33;24.80;38.70
67870;DHT22;54673;52.262;6.830;2023-05-29T00:28:59;24.80;38.70
67870;DHT22;54673;52.262;6.830;2023-05-29T00:31:25;24.80;38.60
67870;DHT22;54673;52.262;6.830;2023-05-29T00:33:50;24.80;38.60
67870;DHT22;54673;52.262;6.830;2023-05-29T00:36:16;24.80;38.50
67870;DHT22;54673;52.262;6.830;2023-05-29T00:38:42;24.80;38.50
67870;DHT22;54673;52.262;6.830;2023-05-29T00:41:08;24.80;38.50
67870;DHT22;54673;52.262;6.830;2023-05-29T00:43:38;24.80;38.50
67870;DHT22;54673;52.262;6.830;2023-05-29T00:46:03;24.80;38.50
67870;DHT22;54673;52.262;6.830;2023-05-29T00:48:29;24.80;38.40
67870;DHT22;54673;52.262;6.830;2023-05-29T00:50:55;24.80;38.50
67870;DHT22;54673;52.262;6.830;2023-05-29T00:53:21;24.80;38.40
67870;DHT22;54673;52.262;6.830;2023-05-29T00:55:48;24.80;38.40
67870;DHT22;54673;52.262;6.830;2023-05-29T00:58:14;24.80;38.40
67870;DHT22;54673;52.262;6.830;2023-05-29T01:00:40;24.80;38.30
67870;DHT22;54673;52.262;6.830;2023-05-29T01:03:06;24.80;38.30
67870;DHT22;54673;52.262;6.830;2023-05-29T01:05:34;24.80;38.30
67870;DHT22;54673;52.262;6.830;2023-05-29T01:08:01;24.80;38.40
67870;DHT22;54673;52.262;6.830;2023-05-29T01:10:27;24.70;38.40
67870;DHT22;54673;52.262;6.830;2023-05-29T01:18:30;24.70;39.20
67870;DHT22;54673;52.262;6.830;2023-05-29T01:26:11;24.70;38.30
67870;DHT22;54673;52.262;6.830;2023-05-29T01:28:46;24.70;38.20
67870;DHT22;54673;52.262;6.830;2023-05-29T01:31:13;24.60;38.10
67870;DHT22;54673;52.262;6.830;2023-05-29T01:33:40;24.60;38.10
67870;DHT22;54673;52.262;6.830;2023-05-29T01:36:09;24.60;38.10
67870;DHT22;54673;52.262;6.830;2023-05-29T01:38:36;24.60;38.10
67870;DHT22;54673;52.262;6.830;2023-05-29T01:41:03;24.60;38.10
67870;DHT22;54673;52.262;6.830;2023-05-29T01:43:29;24.60;38.10
67870;DHT22;54673;52.262;6.830;2023-05-29T01:45:56;24.60;38.10
67870;DHT22;54673;52.262;6.830;2023-05-29T01:48:22;24.60;38.00
67870;DHT22;54673;52.262;6.830;2023-05-29T01:50:48;24.60;38.00
67870;DHT22;54673;52.262;6.830;2023-05-29T01:53:14;24.60;38.00
67870;DHT22;54673;52.262;6.830;2023-05-29T01:55:40;24.60;38.00
67870;DHT22;54673;52.262;6.830;2023-05-29T01:58:07;24.60;38.00
67870;DHT22;54673;52.262;6.830;2023-05-29T02:00:33;24.60;38.00
67870;DHT22;54673;52.262;6.830;2023-05-29T02:02:58;24.60;38.00
67870;DHT22;54673;52.262;6.830;2023-05-29T02:05:24;24.60;37.90
67870;DHT22;54673;52.262;6.830;2023-05-29T02:07:50;24.60;37.90
67870;DHT22;54673;52.262;6.830;2023-05-29T02:10:15;24.60;37.90
67870;DHT22;54673;52.262;6.830;2023-05-29T02:12:41;24.60;37.90
67870;DHT22;54673;52.262;6.830;2023-05-29T02:15:07;24.60;37.90
67870;DHT22;54673;52.262;6.830;2023-05-29T02:17:33;24.60;37.80
67870;DHT22;54673;52.262;6.830;2023-05-29T02:19:59;24.60;37.80
67870;DHT22;54673;52.262;6.830;2023-05-29T02:22:25;24.60;37.80
67870;DHT22;54673;52.262;6.830;2023-05-29T02:24:50;24.60;37.70
67870;DHT22;54673;52.262;6.830;2023-05-29T02:27:16;24.50;37.70
67870;DHT22;54673;52.262;6.830;2023-05-29T02:29:41;24.60;37.80
67870;DHT22;54673;52.262;6.830;2023-05-29T02:32:07;24.60;37.70
67870;DHT22;54673;52.262;6.830;2023-05-29T02:34:32;24.50;37.60
67870;DHT22;54673;52.262;6.830;2023-05-29T02:36:58;24.60;37.70
67870;DHT22;54673;52.262;6.830;2023-05-29T02:39:24;24.50;37.60
67870;DHT22;54673;52.262;6.830;2023-05-29T02:41:49;24.50;37.60
67870;DHT22;54673;52.262;6.830;2023-05-29T02:44:15;24.60;37.60
67870;DHT22;54673;52.262;6.830;2023-05-29T02:46:40;24.50;37.60
67870;DHT22;54673;52.262;6.830;2023-05-29T02:49:06;24.50;37.60
67870;DHT22;54673;52.262;6.830;2023-05-29T02:51:31;24.50;37.50
67870;DHT22;54673;52.262;6.830;2023-05-29T02:54:00;24.50;37.50
67870;DHT22;54673;52.262;6.830;2023-05-29T02:56:25;24.50;37.50
67870;DHT22;54673;52.262;6.830;2023-05-29T02:58:51;24.50;37.50
67870;DHT22;54673;52.262;6.830;2023-05-29T03:01:17;24.50;37.40
67870;DHT22;54673;52.262;6.830;2023-05-29T03:03:43;24.50;37.50
67870;DHT22;54673;52.262;6.830;2023-05-29T03:06:08;24.50;37.50
67870;DHT22;54673;52.262;6.830;2023-05-29T03:08:35;24.50;37.40
67870;DHT22;54673;52.262;6.830;2023-05-29T03:11:06;24.50;37.40
67870;DHT22;54673;52.262;6.830;2023-05-29T03:13:32;24.40;37.30
67870;DHT22;54673;52.262;6.830;2023-05-29T03:15:59;24.50;37.30
67870;DHT22;54673;52.262;6.830;2023-05-29T03:18:25;24.40;37.20
67870;DHT22;54673;52.262;6.830;2023-05-29T03:20:50;24.50;37.30
67870;DHT22;54673;52.262;6.830;2023-05-29T03:23:16;24.50;37.30
67870;DHT22;54673;52.262;6.830;2023-05-29T03:25:41;24.50;37.30
67870;DHT22;54673;52.262;6.830;2023-05-29T03:28:07;24.40;37.10
67870;DHT22;54673;52.262;6.830;2023-05-29T03:30:33;24.40;37.10
67870;DHT22;54673;52.262;6.830;2023-05-29T03:32:59;24.40;37.10
67870;DHT22;54673;52.262;6.830;2023-05-29T03:35:29;24.40;37.20
67870;DHT22;54673;52.262;6.830;2023-05-29T03:37:55;24.40;37.30
67870;DHT22;54673;52.262;6.830;2023-05-29T03:40:20;24.40;37.20
67870;DHT22;54673;52.262;6.830;2023-05-29T03:42:46;24.40;37.20
67870;DHT22;54673;52.262;6.830;2023-05-29T03:45:12;24.40;37.10
67870;DHT22;54673;52.262;6.830;2023-05-29T03:47:37;24.40;37.20
67870;DHT22;54673;52.262;6.830;2023-05-29T03:50:03;24.40;37.10
67870;DHT22;54673;52.262;6.830;2023-05-29T03:52:29;24.40;37.10
67870;DHT22;54673;52.262;6.830;2023-05-29T03:54:54;24.40;37.10
67870;DHT22;54673;52.262;6.830;2023-05-29T03:57:20;24.40;37.00
67870;DHT22;54673;52.262;6.830;2023-05-29T03:59:45;24.40;37.10
67870;DHT22;54673;52.262;6.830;2023-05-29T04:02:11;24.40;37.00
67870;DHT22;54673;52.262;6.830;2023-05-29T04:04:36;24.40;37.00
67870;DHT22;54673;52.262;6.830;2023-05-29T04:07:02;24.40;37.00
67870;DHT22;54673;52.262;6.830;2023-05-29T04:09:28;24.30;36.90
67870;DHT22;54673;52.262;6.830;2023-05-29T04:11:54;24.40;37.00
67870;DHT22;54673;52.262;6.830;2023-05-29T04:14:20;23.40;36.40
67870;DHT22;54673;52.262;6.830;2023-05-29T04:16:45;24.30;36.90
67870;DHT22;54673;52.262;6.830;2023-05-29T04:19:11;24.30;36.90
67870;DHT22;54673;52.262;6.830;2023-05-29T04:21:37;24.30;36.90
67870;DHT22;54673;52.262;6.830;2023-05-29T04:24:02;24.30;36.90
67870;DHT22;54673;52.262;6.830;2023-05-29T04:26:28;24.20;36.80
67870;DHT22;54673;52.262;6.830;2023-05-29T04:28:53;24.20;36.90
67870;DHT22;54673;52.262;6.830;2023-05-29T04:31:23;24.20;36.80
67870;DHT22;54673;52.262;6.830;2023-05-29T04:33:53;24.20;36.90
67870;DHT22;54673;52.262;6.830;2023-05-29T04:36:26;24.20;36.80
67870;DHT22;54673;52.262;6.830;2023-05-29T04:38:53;24.20;36.80
67870;DHT22;54673;52.262;6.830;2023-05-29T04:41:19;24.20;36.80
67870;DHT22;54673;52.262;6.830;2023-05-29T04:43:44;24.20;36.80
67870;DHT22;54673;52.262;6.830;2023-05-29T04:46:11;24.20;36.80
67870;DHT22;54673;52.262;6.830;2023-05-29T04:48:40;24.20;36.80
67870;DHT22;54673;52.262;6.830;2023-05-29T04:51:06;24.20;36.80
67870;DHT22;54673;52.262;6.830;2023-05-29T04:53:32;24.20;36.80
67870;DHT22;54673;52.262;6.830;2023-05-29T04:55:58;24.20;36.80
67870;DHT22;54673;52.262;6.830;2023-05-29T04:58:26;24.20;36.70
67870;DHT22;54673;52.262;6.830;2023-05-29T05:00:51;24.20;36.70
67870;DHT22;54673;52.262;6.830;2023-05-29T05:03:17;24.20;36.80
67870;DHT22;54673;52.262;6.830;2023-05-29T05:05:43;24.20;36.70
67870;DHT22;54673;52.262;6.830;2023-05-29T05:08:09;24.20;36.60
67870;DHT22;54673;52.262;6.830;2023-05-29T05:10:37;24.20;36.70
67870;DHT22;54673;52.262;6.830;2023-05-29T05:13:02;24.20;36.70
67870;DHT22;54673;52.262;6.830;2023-05-29T05:15:28;24.20;36.70
67870;DHT22;54673;52.262;6.830;2023-05-29T05:17:54;24.20;36.70
67870;DHT22;54673;52.262;6.830;2023-05-29T05:20:19;24.20;36.60
67870;DHT22;54673;52.262;6.830;2023-05-29T05:22:45;24.20;36.60
67870;DHT22;54673;52.262;6.830;2023-05-29T05:25:11;24.20;36.80
67870;DHT22;54673;52.262;6.830;2023-05-29T05:27:37;24.20;37.40
67870;DHT22;54673;52.262;6.830;2023-05-29T05:30:03;24.40;37.60
67870;DHT22;54673;52.262;6.830;2023-05-29T05:32:29;24.40;37.50
67870;DHT22;54673;52.262;6.830;2023-05-29T05:34:54;24.40;37.40
67870;DHT22;54673;52.262;6.830;2023-05-29T05:37:20;24.40;37.40
67870;DHT22;54673;52.262;6.830;2023-05-29T05:39:51;24.40;37.40
67870;DHT22;54673;52.262;6.830;2023-05-29T05:42:19;24.40;37.40
67870;DHT22;54673;52.262;6.830;2023-05-29T05:44:44;24.40;37.30
67870;DHT22;54673;52.262;6.830;2023-05-29T05:47:10;24.40;37.30
67870;DHT22;54673;52.262;6.830;2023-05-29T05:49:36;24.40;37.30
67870;DHT22;54673;52.262;6.830;2023-05-29T05:52:01;24.40;37.30
67870;DHT22;54673;52.262;6.830;2023-05-29T05:54:27;24.30;37.30
67870;DHT22;54673;52.262;6.830;2023-05-29T05:56:52;24.40;37.40
67870;DHT22;54673;52.262;6.830;2023-05-29T05:59:18;24.40;37.30
67870;DHT22;54673;52.262;6.830;2023-05-29T06:01:43;24.40;37.30
67870;DHT22;54673;52.262;6.830;2023-05-29T06:04:09;24.40;37.30
67870;DHT22;54673;52.262;6.830;2023-05-29T06:06:34;24.40;38.20
67870;DHT22;54673;52.262;6.830;2023-05-29T06:09:01;24.40;37.30
67870;DHT22;54673;52.262;6.830;2023-05-29T06:11:26;24.40;37.40
67870;DHT22;54673;52.262;6.830;2023-05-29T06:13:52;24.40;37.30
67870;DHT22;54673;52.262;6.830;2023-05-29T06:16:18;24.40;37.30
67870;DHT22;54673;52.262;6.830;2023-05-29T06:18:44;24.40;37.30
67870;DHT22;54673;52.262;6.830;2023-05-29T06:21:11;24.40;38.00
67870;DHT22;54673;52.262;6.830;2023-05-29T06:23:37;24.30;37.20
67870;DHT22;54673;52.262;6.830;2023-05-29T06:26:03;24.40;37.40
67870;DHT22;54673;52.262;6.830;2023-05-29T06:28:29;24.30;37.30
67870;DHT22;54673;52.262;6.830;2023-05-29T06:30:55;24.30;37.40
67870;DHT22;54673;52.262;6.830;2023-05-29T06:33:20;24.30;37.40
67870;DHT22;54673;52.262;6.830;2023-05-29T06:35:47;24.40;37.40
67870;DHT22;54673;52.262;6.830;2023-05-29T06:38:13;24.40;37.40
67870;DHT22;54673;52.262;6.830;2023-05-29T06:40:39;24.40;37.40
67870;DHT22;54673;52.262;6.830;2023-05-29T06:43:05;24.40;37.50
67870;DHT22;54673;52.262;6.830;2023-05-29T06:45:30;24.40;37.50
67870;DHT22;54673;52.262;6.830;2023-05-29T06:47:56;24.40;37.50
67870;DHT22;54673;52.262;6.830;2023-05-29T06:50:22;24.40;37.50
67870;DHT22;54673;52.262;6.830;2023-05-29T06:52:47;24.40;37.50
67870;DHT22;54673;52.262;6.830;2023-05-29T06:55:13;24.40;37.50
67870;DHT22;54673;52.262;6.830;2023-05-29T06:57:38;24.40;37.60
67870;DHT22;54673;52.262;6.830;2023-05-29T07:00:05;24.40;37.50
67870;DHT22;54673;52.262;6.830;2023-05-29T07:02:31;24.40;37.50
67870;DHT22;54673;52.262;6.830;2023-05-29T07:04:57;24.40;37.50
67870;DHT22;54673;52.262;6.830;2023-05-29T07:07:23;24.40;37.60
67870;DHT22;54673;52.262;6.830;2023-05-29T07:09:48;24.50;37.70
67870;DHT22;54673;52.262;6.830;2023-05-29T07:12:14;24.40;37.60
67870;DHT22;54673;52.262;6.830;2023-05-29T07:14:39;24.50;37.60
67870;DHT22;54673;52.262;6.830;2023-05-29T07:17:05;24.50;37.60
67870;DHT22;54673;52.262;6.830;2023-05-29T07:19:31;24.50;37.60
67870;DHT22;54673;52.262;6.830;2023-05-29T07:21:59;24.50;37.60
67870;DHT22;54673;52.262;6.830;2023-05-29T07:24:25;24.50;37.60
67870;DHT22;54673;52.262;6.830;2023-05-29T07:26:50;24.50;37.60
67870;DHT22;54673;52.262;6.830;2023-05-29T07:29:16;24.50;37.70
67870;DHT22;54673;52.262;6.830;2023-05-29T07:31:43;24.50;37.80
67870;DHT22;54673;52.262;6.830;2023-05-29T07:34:09;24.50;37.90
67870;DHT22;54673;52.262;6.830;2023-05-29T07:36:36;24.50;37.80
67870;DHT22;54673;52.262;6.830;2023-05-29T07:39:02;24.50;37.80
67870;DHT22;54673;52.262;6.830;2023-05-29T07:41:27;24.50;37.50
67870;DHT22;54673;52.262;6.830;2023-05-29T07:43:53;24.50;37.50
67870;DHT22;54673;52.262;6.830;2023-05-29T07:46:21;24.50;37.10
67870;DHT22;54673;52.262;6.830;2023-05-29T07:48:46;24.60;36.90
67870;DHT22;54673;52.262;6.830;2023-05-29T07:51:12;24.50;36.40
67870;DHT22;54673;52.262;6.830;2023-05-29T07:53:38;24.40;36.20
67870;DHT22;54673;52.262;6.830;2023-05-29T07:56:04;24.50;36.00
67870;DHT22;54673;52.262;6.830;2023-05-29T07:58:29;24.40;35.80
67870;DHT22;54673;52.262;6.830;2023-05-29T08:00:55;24.40;35.80
67870;DHT22;54673;52.262;6.830;2023-05-29T08:03:21;24.40;36.00
67870;DHT22;54673;52.262;6.830;2023-05-29T08:05:47;24.40;36.10
67870;DHT22;54673;52.262;6.830;2023-05-29T08:08:13;24.50;36.10
67870;DHT22;54673;52.262;6.830;2023-05-29T08:10:39;24.50;35.90
67870;DHT22;54673;52.262;6.830;2023-05-29T08:13:04;24.50;35.80
67870;DHT22;54673;52.262;6.830;2023-05-29T08:15:30;24.50;35.80
67870;DHT22;54673;52.262;6.830;2023-05-29T08:17:57;24.60;35.90
67870;DHT22;54673;52.262;6.830;2023-05-29T08:20:22;24.60;36.00
67870;DHT22;54673;52.262;6.830;2023-05-29T08:22:48;24.60;36.00
67870;DHT22;54673;52.262;6.830;2023-05-29T08:25:13;24.50;35.90
67870;DHT22;54673;52.262;6.830;2023-05-29T08:27:39;24.50;36.00
67870;DHT22;54673;52.262;6.830;2023-05-29T08:30:05;24.60;35.90
67870;DHT22;54673;52.262;6.830;2023-05-29T08:32:31;24.50;35.60
67870;DHT22;54673;52.262;6.830;2023-05-29T08:34:56;24.50;35.70
67870;DHT22;54673;52.262;6.830;2023-05-29T08:37:22;24.60;35.40
67870;DHT22;54673;52.262;6.830;2023-05-29T08:39:48;24.50;35.20
67870;DHT22;54673;52.262;6.830;2023-05-29T08:42:21;24.40;35.10
67870;DHT22;54673;52.262;6.830;2023-05-29T08:44:47;24.50;35.40
67870;DHT22;54673;52.262;6.830;2023-05-29T08:47:17;24.50;35.40
67870;DHT22;54673;52.262;6.830;2023-05-29T08:49:51;24.60;35.50
67870;DHT22;54673;52.262;6.830;2023-05-29T08:52:19;24.60;35.60
67870;DHT22;54673;52.262;6.830;2023-05-29T08:54:46;24.70;35.60
67870;DHT22;54673;52.262;6.830;2023-05-29T08:57:12;24.80;35.50
67870;DHT22;54673;52.262;6.830;2023-05-29T08:59:41;24.80;35.50
67870;DHT22;54673;52.262;6.830;2023-05-29T09:02:07;24.80;35.40
67870;DHT22;54673;52.262;6.830;2023-05-29T09:04:33;24.80;35.20
67870;DHT22;54673;52.262;6.830;2023-05-29T09:06:59;24.90;35.30
67870;DHT22;54673;52.262;6.830;2023-05-29T09:09:29;24.90;35.30
67870;DHT22;54673;52.262;6.830;2023-05-29T09:11:56;25.00;35.40
67870;DHT22;54673;52.262;6.830;2023-05-29T09:14:41;25.00;35.50
67870;DHT22;54673;52.262;6.830;2023-05-29T09:17:09;25.10;35.40
67870;DHT22;54673;52.262;6.830;2023-05-29T09:19:35;25.10;35.50
67870;DHT22;54673;52.262;6.830;2023-05-29T09:22:11;25.10;35.50
67870;DHT22;54673;52.262;6.830;2023-05-29T09:24:40;25.10;35.40
67870;DHT22;54673;52.262;6.830;2023-05-29T09:27:08;25.20;35.60
67870;DHT22;54673;52.262;6.830;2023-05-29T09:29:41;25.20;35.70
67870;DHT22;54673;52.262;6.830;2023-05-29T09:32:12;25.20;35.70
67870;DHT22;54673;52.262;6.830;2023-05-29T09:34:38;25.20;35.60
67870;DHT22;54673;52.262;6.830;2023-05-29T09:37:09;25.20;35.20
67870;DHT22;54673;52.262;6.830;2023-05-29T09:39:45;25.20;35.10
67870;DHT22;54673;52.262;6.830;2023-05-29T09:42:12;25.30;35.20
67870;DHT22;54673;52.262;6.830;2023-05-29T09:44:40;25.30;34.90
67870;DHT22;54673;52.262;6.830;2023-05-29T09:47:05;25.30;34.70
67870;DHT22;54673;52.262;6.830;2023-05-29T09:49:32;25.30;34.60
67870;DHT22;54673;52.262;6.830;2023-05-29T09:51:58;25.40;34.80
67870;DHT22;54673;52.262;6.830;2023-05-29T09:54:29;25.40;34.90
67870;DHT22;54673;52.262;6.830;2023-05-29T09:56:56;25.40;34.90
67870;DHT22;54673;52.262;6.830;2023-05-29T09:59:23;25.40;34.60
67870;DHT22;54673;52.262;6.830;2023-05-29T10:01:59;25.40;34.90
67870;DHT22;54673;52.262;6.830;2023-05-29T10:04:25;25.50;35.00
67870;DHT22;54673;52.262;6.830;2023-05-29T10:06:51;25.50;34.70
67870;DHT22;54673;52.262;6.830;2023-05-29T10:09:19;25.50;34.30
67870;DHT22;54673;52.262;6.830;2023-05-29T10:11:48;25.40;34.40
67870;DHT22;54673;52.262;6.830;2023-05-29T10:14:18;25.50;34.70
67870;DHT22;54673;52.262;6.830;2023-05-29T10:16:46;25.60;34.90
67870;DHT22;54673;52.262;6.830;2023-05-29T10:19:13;25.60;35.10
67870;DHT22;54673;52.262;6.830;2023-05-29T10:21:41;25.60;35.20
67870;DHT22;54673;52.262;6.830;2023-05-29T10:24:07;25.70;35.40
67870;DHT22;54673;52.262;6.830;2023-05-29T10:26:39;25.70;35.40
67870;DHT22;54673;52.262;6.830;2023-05-29T10:32:29;25.70;35.30
67870;DHT22;54673;52.262;6.830;2023-05-29T10:37:46;26.30;34.70
67870;DHT22;54673;52.262;6.830;2023-05-29T10:40:13;25.50;34.00
67870;DHT22;54673;52.262;6.830;2023-05-29T10:42:49;25.50;33.90
67870;DHT22;54673;52.262;6.830;2023-05-29T10:50:46;25.50;33.50
67870;DHT22;54673;52.262;6.830;2023-05-29T10:53:23;25.50;33.40
67870;DHT22;54673;52.262;6.830;2023-05-29T10:55:50;25.50;33.30
67870;DHT22;54673;52.262;6.830;2023-05-29T10:58:24;25.50;33.30
67870;DHT22;54673;52.262;6.830;2023-05-29T11:00:51;25.50;33.40
67870;DHT22;54673;52.262;6.830;2023-05-29T11:03:24;25.60;33.30
67870;DHT22;54673;52.262;6.830;2023-05-29T11:06:07;25.50;33.40
67870;DHT22;54673;52.262;6.830;2023-05-29T11:11:13;25.60;33.70
67870;DHT22;54673;52.262;6.830;2023-05-29T11:13:39;25.60;33.60
67870;DHT22;54673;52.262;6.830;2023-05-29T11:19:04;25.60;33.30
67870;DHT22;54673;52.262;6.830;2023-05-29T11:24:24;25.60;33.40
67870;DHT22;54673;52.262;6.830;2023-05-29T11:26:54;25.60;33.20
67870;DHT22;54673;52.262;6.830;2023-05-29T11:29:27;25.70;33.00
67870;DHT22;54673;52.262;6.830;2023-05-29T11:34:28;25.70;32.90
67870;DHT22;54673;52.262;6.830;2023-05-29T11:36:53;25.70;32.80
67870;DHT22;54673;52.262;6.830;2023-05-29T11:39:19;25.70;32.40
67870;DHT22;54673;52.262;6.830;2023-05-29T11:41:46;25.80;32.30
67870;DHT22;54673;52.262;6.830;2023-05-29T11:44:15;25.70;32.10
67870;DHT22;54673;52.262;6.830;2023-05-29T11:46:40;25.70;32.10
67870;DHT22;54673;52.262;6.830;2023-05-29T11:49:06;25.60;32.10
67870;DHT22;54673;52.262;6.830;2023-05-29T11:51:31;25.50;31.90
67870;DHT22;54673;52.262;6.830;2023-05-29T11:53:57;25.40;31.90
67870;DHT22;54673;52.262;6.830;2023-05-29T11:56:27;25.40;32.10
67870;DHT22;54673;52.262;6.830;2023-05-29T11:58:54;25.30;32.00
67870;DHT22;54673;52.262;6.830;2023-05-29T12:01:25;25.40;32.00
67870;DHT22;54673;52.262;6.830;2023-05-29T12:03:51;25.30;31.70
67870;DHT22;54673;52.262;6.830;2023-05-29T12:06:33;25.30;31.70
67870;DHT22;54673;52.262;6.830;2023-05-29T12:08:59;25.20;31.70
67870;DHT22;54673;52.262;6.830;2023-05-29T12:11:26;25.20;32.00
67870;DHT22;54673;52.262;6.830;2023-05-29T12:13:58;25.20;32.00
67870;DHT22;54673;52.262;6.830;2023-05-29T12:16:32;25.00;31.80
67870;DHT22;54673;52.262;6.830;2023-05-29T12:18:59;25.20;32.20
67870;DHT22;54673;52.262;6.830;2023-05-29T12:21:27;25.20;32.30
67870;DHT22;54673;52.262;6.830;2023-05-29T12:23:53;25.20;32.60
67870;DHT22;54673;52.262;6.830;2023-05-29T12:26:23;25.20;32.90
67870;DHT22;54673;52.262;6.830;2023-05-29T12:28:50;25.30;33.10
67870;DHT22;54673;52.262;6.830;2023-05-29T12:31:27;25.40;33.20
67870;DHT22;54673;52.262;6.830;2023-05-29T12:33:53;25.30;32.90
67870;DHT22;54673;52.262;6.830;2023-05-29T12:36:19;25.40;32.80
67870;DHT22;54673;52.262;6.830;2023-05-29T12:38:51;25.40;32.60
67870;DHT22;54673;52.262;6.830;2023-05-29T12:41:28;25.40;32.70
67870;DHT22;54673;52.262;6.830;2023-05-29T12:43:55;25.40;33.00
67870;DHT22;54673;52.262;6.830;2023-05-29T12:46:22;25.50;32.90
67870;DHT22;54673;52.262;6.830;2023-05-29T12:48:47;25.50;32.80
67870;DHT22;54673;52.262;6.830;2023-05-29T12:51:17;25.60;32.60
67870;DHT22;54673;52.262;6.830;2023-05-29T12:53:43;25.60;32.60
67870;DHT22;54673;52.262;6.830;2023-05-29T12:56:08;25.60;32.40
67870;DHT22;54673;52.262;6.830;2023-05-29T12:58:34;25.60;32.20
67870;DHT22;54673;52.262;6.830;2023-05-29T13:00:59;25.60;32.20
67870;DHT22;54673;52.262;6.830;2023-05-29T13:03:25;25.60;32.10
67870;DHT22;54673;52.262;6.830;2023-05-29T13:05:51;25.60;32.10
67870;DHT22;54673;52.262;6.830;2023-05-29T13:08:18;25.60;32.20
67870;DHT22;54673;52.262;6.830;2023-05-29T13:10:44;25.60;32.10
67870;DHT22;54673;52.262;6.830;2023-05-29T13:13:10;25.60;31.90
67870;DHT22;54673;52.262;6.830;2023-05-29T13:15:37;25.60;32.00
67870;DHT22;54673;52.262;6.830;2023-05-29T13:18:05;25.60;31.90
67870;DHT22;54673;52.262;6.830;2023-05-29T13:20:31;25.70;31.80
67870;DHT22;54673;52.262;6.830;2023-05-29T13:22:57;25.70;31.20
67870;DHT22;54673;52.262;6.830;2023-05-29T13:25:23;25.70;31.00
67870;DHT22;54673;52.262;6.830;2023-05-29T13:27:51;25.60;30.80
67870;DHT22;54673;52.262;6.830;2023-05-29T13:30:16;25.60;30.80
67870;DHT22;54673;52.262;6.830;2023-05-29T13:32:42;25.50;31.10
67870;DHT22;54673;52.262;6.830;2023-05-29T13:35:08;25.40;31.00
67870;DHT22;54673;52.262;6.830;2023-05-29T13:37:35;25.50;31.40
67870;DHT22;54673;52.262;6.830;2023-05-29T13:40:01;25.50;31.50
67870;DHT22;54673;52.262;6.830;2023-05-29T13:42:27;25.40;31.60
67870;DHT22;54673;52.262;6.830;2023-05-29T13:44:53;25.40;31.60
67870;DHT22;54673;52.262;6.830;2023-05-29T13:47:19;25.40;31.50
67870;DHT22;54673;52.262;6.830;2023-05-29T13:49:45;25.30;31.40
67870;DHT22;54673;52.262;6.830;2023-05-29T13:52:10;25.30;31.40
67870;DHT22;54673;52.262;6.830;2023-05-29T13:54:36;25.30;31.40
67870;DHT22;54673;52.262;6.830;2023-05-29T13:57:03;25.30;32.30
67870;DHT22;54673;52.262;6.830;2023-05-29T13:59:29;25.30;31.50
67870;DHT22;54673;52.262;6.830;2023-05-29T14:01:55;25.30;31.50
67870;DHT22;54673;52.262;6.830;2023-05-29T14:04:20;25.30;31.60
67870;DHT22;54673;52.262;6.830;2023-05-29T14:06:46;25.30;31.70
67870;DHT22;54673;52.262;6.830;2023-05-29T14:09:11;25.30;31.70
67870;DHT22;54673;52.262;6.830;2023-05-29T14:11:38;25.30;31.90
67870;DHT22;54673;52.262;6.830;2023-05-29T14:14:04;25.30;32.00
67870;DHT22;54673;52.262;6.830;2023-05-29T14:16:30;25.30;32.00
67870;DHT22;54673;52.262;6.830;2023-05-29T14:18:55;25.30;32.00
67870;DHT22;54673;52.262;6.830;2023-05-29T14:21:21;25.30;31.90
67870;DHT22;54673;52.262;6.830;2023-05-29T14:23:46;25.30;32.00
67870;DHT22;54673;52.262;6.830;2023-05-29T14:26:12;25.30;32.00
67870;DHT22;54673;52.262;6.830;2023-05-29T14:28:38;25.30;31.80
67870;DHT22;54673;52.262;6.830;2023-05-29T14:31:04;25.30;32.00
67870;DHT22;54673;52.262;6.830;2023-05-29T14:33:30;25.30;32.00
67870;DHT22;54673;52.262;6.830;2023-05-29T14:35:56;25.30;31.90
67870;DHT22;54673;52.262;6.830;2023-05-29T14:38:22;25.30;31.70
67870;DHT22;54673;52.262;6.830;2023-05-29T14:40:48;25.30;31.60
67870;DHT22;54673;52.262;6.830;2023-05-29T14:43:14;25.30;31.50
67870;DHT22;54673;52.262;6.830;2023-05-29T14:45:39;25.30;31.50
67870;DHT22;54673;52.262;6.830;2023-05-29T14:48:05;25.30;31.50
67870;DHT22;54673;52.262;6.830;2023-05-29T14:50:30;25.30;31.50
67870;DHT22;54673;52.262;6.830;2023-05-29T14:52:56;25.30;31.50
67870;DHT22;54673;52.262;6.830;2023-05-29T14:55:21;25.30;31.30
67870;DHT22;54673;52.262;6.830;2023-05-29T14:57:47;25.30;31.10
67870;DHT22;54673;52.262;6.830;2023-05-29T15:00:14;25.30;30.90
67870;DHT22;54673;52.262;6.830;2023-05-29T15:02:40;25.30;30.90
67870;DHT22;54673;52.262;6.830;2023-05-29T15:05:06;25.30;30.90
67870;DHT22;54673;52.262;6.830;2023-05-29T15:07:33;25.40;31.20
67870;DHT22;54673;52.262;6.830;2023-05-29T15:10:04;25.50;31.30
67870;DHT22;54673;52.262;6.830;2023-05-29T15:12:31;25.60;31.10
67870;DHT22;54673;52.262;6.830;2023-05-29T15:14:56;25.60;31.10
67870;DHT22;54673;52.262;6.830;2023-05-29T15:17:22;25.60;31.00
67870;DHT22;54673;52.262;6.830;2023-05-29T15:19:47;25.70;31.10
67870;DHT22;54673;52.262;6.830;2023-05-29T15:22:13;25.70;31.10
67870;DHT22;54673;52.262;6.830;2023-05-29T15:24:38;25.70;31.20
67870;DHT22;54673;52.262;6.830;2023-05-29T15:27:04;25.80;31.10
67870;DHT22;54673;52.262;6.830;2023-05-29T15:29:34;25.90;31.00
67870;DHT22;54673;52.262;6.830;2023-05-29T15:32:00;25.90;30.90
67870;DHT22;54673;52.262;6.830;2023-05-29T15:34:26;26.00;31.20
67870;DHT22;54673;52.262;6.830;2023-05-29T15:36:52;26.00;31.10
67870;DHT22;54673;52.262;6.830;2023-05-29T15:39:17;26.00;30.80
67870;DHT22;54673;52.262;6.830;2023-05-29T15:41:43;26.00;30.90
67870;DHT22;54673;52.262;6.830;2023-05-29T15:44:09;26.10;30.90
67870;DHT22;54673;52.262;6.830;2023-05-29T15:46:34;26.10;30.60
67870;DHT22;54673;52.262;6.830;2023-05-29T15:49:00;26.20;30.50
67870;DHT22;54673;52.262;6.830;2023-05-29T15:51:25;26.20;30.60
67870;DHT22;54673;52.262;6.830;2023-05-29T15:53:51;26.30;30.50
67870;DHT22;54673;52.262;6.830;2023-05-29T15:56:17;26.30;30.50
67870;DHT22;54673;52.262;6.830;2023-05-29T15:58:43;26.30;30.50
67870;DHT22;54673;52.262;6.830;2023-05-29T16:01:08;26.30;30.50